Sarfaq Ittuk — OWDD — position and weather

sailwx.info

Track history (hours):
 
Tides and Currents Weather Stations Pressure Air Temp Water Temp Dewpoint Dewpoint Depression Visibility Wind Speed Wind Dir Waves Ship Positions

Sarfaq Ittuk

Last reported at 2019-Sep-17 08:30 UTC. Time now 2019-Sep-17 08:59 UTC.
Position N 64°09' W 051°47'.

Length 73 m; beam 11.1 m; draft 3.7 m.

Type: Passenger vessel. MMSI: 331000499.

Date/timePositionNaut miles runAvg speedWind from/ knotsBaromVisibWave heightAir tempDewpointWater temp
2019-Sep-17 08:30N 64°09' W 051°47'5 9.1
2019-Sep-17 08:00N 64°07' W 051°57'5 9.4
2019-Sep-17 07:30N 64°04' W 052°06'5 9.5
2019-Sep-17 07:01N 64°07' W 052°15'510.9
2019-Sep-17 06:30N 64°11' W 052°22'611.1
2019-Sep-17 06:00N 64°16' W 052°26'611.6
2019-Sep-17 05:30N 64°22' W 052°29'611.6
2019-Sep-17 05:01N 64°28' W 052°32'611.8
2019-Sep-17 04:30N 64°34' W 052°35'612.1
2019-Sep-17 04:00N 64°39' W 052°37'611.8
2019-Sep-17 03:30N 64°45' W 052°40'611.9
2019-Sep-17 03:00N 64°51' W 052°43'611.6
2019-Sep-17 02:30N 64°57' W 052°45'611.9
2019-Sep-17 02:00N 65°03' W 052°48'611.6
2019-Sep-17 01:30N 65°08' W 052°50'611.5
2019-Sep-17 01:00N 65°14' W 052°51'611.7
2019-Sep-17 00:30N 65°20' W 052°51'5 4.4
2019-Sep-16 23:24N 65°25' W 052°54'3 7.4
2019-Sep-16 23:00N 65°27' W 052°52'611.4
2019-Sep-16 22:30N 65°33' W 052°51'14 8.9
2019-Sep-16 20:56N 65°40' W 053°20'511.8
2019-Sep-16 20:30N 65°45' W 053°19'10 6.0
2019-Sep-16 18:47N 65°53' W 053°34'  
2019-Sep-14 14:12N 65°51' W 053°29'50 6.7
2019-Sep-14 06:38N 65°04' W 052°48'211.0
2019-Sep-14 06:30N 65°02' W 052°48'510.5
2019-Sep-14 06:00N 64°57' W 052°45'510.5
2019-Sep-14 05:30N 64°52' W 052°43'510.1
2019-Sep-14 05:00N 64°47' W 052°41'5 9.9
2019-Sep-14 04:30N 64°42' W 052°39'510.1
2019-Sep-14 04:00N 64°37' W 052°36'510.0
2019-Sep-14 03:30N 64°32' W 052°34'510.0
2019-Sep-14 03:00N 64°28' W 052°32'510.2
2019-Sep-14 02:30N 64°23' W 052°30'510.1
2019-Sep-14 02:00N 64°18' W 052°26'510.2
2019-Sep-14 01:30N 64°13' W 052°24'5 9.9
2019-Sep-14 01:00N 64°08' W 052°19'510.6
2019-Sep-14 00:30N 64°04' W 052°11'5 9.7
2019-Sep-14 00:00N 64°06' W 052°01'510.7
2019-Sep-13 23:30N 64°08' W 051°50'4 7.5
2019-Sep-13 23:00N 64°10' W 051°43'0 0.0
2019-Sep-13 22:30N 64°10' W 051°43'0 0.0
2019-Sep-13 22:00N 64°10' W 051°43'0 0.0
2019-Sep-13 21:30N 64°10' W 051°43'0 0.0
2019-Sep-13 21:00N 64°10' W 051°43'0 0.0
2019-Sep-13 20:30N 64°10' W 051°43'0 0.0
2019-Sep-13 20:00N 64°10' W 051°43'0 0.0
2019-Sep-13 19:30N 64°10' W 051°43'0 0.0
2019-Sep-13 19:00N 64°10' W 051°43'0 0.0
2019-Sep-13 18:30N 64°10' W 051°43'0 0.0
2019-Sep-13 18:00N 64°10' W 051°43'0 0.0
2019-Sep-13 17:30N 64°10' W 051°43'0 0.0
2019-Sep-13 17:00N 64°10' W 051°43'0 0.0
2019-Sep-13 16:30N 64°10' W 051°43'0 0.0
2019-Sep-13 16:00N 64°10' W 051°43'0 0.0
2019-Sep-13 15:30N 64°10' W 051°43'0 0.0
2019-Sep-13 15:00N 64°10' W 051°43'0 0.0
2019-Sep-13 14:30N 64°10' W 051°43'0 0.0
2019-Sep-13 14:00N 64°10' W 051°43'0 0.0
2019-Sep-13 13:30N 64°10' W 051°43'0 0.0
2019-Sep-13 13:01N 64°10' W 051°43'0 0.0
2019-Sep-13 12:31N 64°10' W 051°43'0 0.0
2019-Sep-13 12:00N 64°10' W 051°43'0 0.0
2019-Sep-13 11:30N 64°10' W 051°43'0 0.0
2019-Sep-13 11:01N 64°10' W 051°43'0 0.0
2019-Sep-13 10:30N 64°10' W 051°43'0 0.0
2019-Sep-13 10:00N 64°10' W 051°43'0 0.0
2019-Sep-13 09:31N 64°10' W 051°43'3 5.2
2019-Sep-13 09:00N 64°08' W 051°41'5 9.7
2019-Sep-13 08:30N 64°03' W 051°38'5 9.4
2019-Sep-13 07:56N 63°58' W 051°38'410.0
2019-Sep-13 07:30N 63°54' W 051°34'5 9.4
2019-Sep-13 07:01N 63°49' W 051°35'5 9.5
2019-Sep-13 06:30N 63°45' W 051°36'  
2019-Sep-10 14:43N 63°29' W 051°34'1511.3
2019-Sep-10 13:26N 63°44' W 051°36'512.0
2019-Sep-10 13:00N 63°49' W 051°35'611.7
2019-Sep-10 12:30N 63°55' W 051°33'611.7
2019-Sep-10 12:00N 63°60' W 051°41'611.6
2019-Sep-10 11:30N 64°06' W 051°39'510.0
2019-Sep-10 11:00N 64°10' W 051°43'0 0.0
2019-Sep-10 10:30N 64°10' W 051°43'0 0.0
2019-Sep-10 10:00N 64°10' W 051°43'0 0.0
2019-Sep-10 09:30N 64°10' W 051°43'0 0.0
2019-Sep-10 09:00N 64°10' W 051°43'3 5.7
2019-Sep-10 08:31N 64°09' W 051°48'611.1
2019-Sep-10 08:00N 64°06' W 051°60'510.4
2019-Sep-10 07:30N 64°04' W 052°11'611.5
2019-Sep-10 07:00N 64°09' W 052°19'611.2
2019-Sep-10 06:30N 64°14' W 052°24'611.2
2019-Sep-10 06:00N 64°19' W 052°27'611.2
2019-Sep-10 05:31N 64°25' W 052°31'611.2
2019-Sep-10 05:00N 64°30' W 052°33'611.4
2019-Sep-10 04:30N 64°36' W 052°36'611.3
2019-Sep-10 04:00N 64°41' W 052°38'510.8
2019-Sep-10 03:30N 64°47' W 052°41'611.2
2019-Sep-10 03:00N 64°52' W 052°43'611.2
2019-Sep-10 02:30N 64°58' W 052°46'611.2
2019-Sep-10 02:01N 65°03' W 052°48'611.0
2019-Sep-10 01:31N 65°08' W 052°50'37 7.7
2019-Sep-09 20:41N 65°43' W 053°20'  
Track history (hours):
 
Tides and Currents Weather Stations Pressure Air Temp Water Temp Dewpoint Dewpoint Depression Visibility Wind Speed Wind Dir Waves Ship Positions

Sarfaq Ittuk

Last reported at 2019-Sep-17 08:30 UTC. Time now 2019-Sep-17 08:59 UTC.
Position N 64°09' W 051°47'.

Length 73 m; beam 11.1 m; draft 3.7 m.

Type: Passenger vessel. MMSI: 331000499.

Date/timePositionNaut miles runAvg speedWind from/ knotsBaromVisibWave heightAir tempDewpointWater temp
2019-Sep-17 08:30N 64°09' W 051°47'5 9.1
2019-Sep-17 08:00N 64°07' W 051°57'5 9.4
2019-Sep-17 07:30N 64°04' W 052°06'5 9.5
2019-Sep-17 07:01N 64°07' W 052°15'510.9
2019-Sep-17 06:30N 64°11' W 052°22'611.1
2019-Sep-17 06:00N 64°16' W 052°26'611.6
2019-Sep-17 05:30N 64°22' W 052°29'611.6
2019-Sep-17 05:01N 64°28' W 052°32'611.8
2019-Sep-17 04:30N 64°34' W 052°35'612.1
2019-Sep-17 04:00N 64°39' W 052°37'611.8
2019-Sep-17 03:30N 64°45' W 052°40'611.9
2019-Sep-17 03:00N 64°51' W 052°43'611.6
2019-Sep-17 02:30N 64°57' W 052°45'611.9
2019-Sep-17 02:00N 65°03' W 052°48'611.6
2019-Sep-17 01:30N 65°08' W 052°50'611.5
2019-Sep-17 01:00N 65°14' W 052°51'611.7
2019-Sep-17 00:30N 65°20' W 052°51'5 4.4
2019-Sep-16 23:24N 65°25' W 052°54'3 7.4
2019-Sep-16 23:00N 65°27' W 052°52'611.4
2019-Sep-16 22:30N 65°33' W 052°51'14 8.9
2019-Sep-16 20:56N 65°40' W 053°20'511.8
2019-Sep-16 20:30N 65°45' W 053°19'10 6.0
2019-Sep-16 18:47N 65°53' W 053°34'  
2019-Sep-14 14:12N 65°51' W 053°29'50 6.7
2019-Sep-14 06:38N 65°04' W 052°48'211.0
2019-Sep-14 06:30N 65°02' W 052°48'510.5
2019-Sep-14 06:00N 64°57' W 052°45'510.5
2019-Sep-14 05:30N 64°52' W 052°43'510.1
2019-Sep-14 05:00N 64°47' W 052°41'5 9.9
2019-Sep-14 04:30N 64°42' W 052°39'510.1
2019-Sep-14 04:00N 64°37' W 052°36'510.0
2019-Sep-14 03:30N 64°32' W 052°34'510.0
2019-Sep-14 03:00N 64°28' W 052°32'510.2
2019-Sep-14 02:30N 64°23' W 052°30'510.1
2019-Sep-14 02:00N 64°18' W 052°26'510.2
2019-Sep-14 01:30N 64°13' W 052°24'5 9.9
2019-Sep-14 01:00N 64°08' W 052°19'510.6
2019-Sep-14 00:30N 64°04' W 052°11'5 9.7
2019-Sep-14 00:00N 64°06' W 052°01'510.7
2019-Sep-13 23:30N 64°08' W 051°50'4 7.5
2019-Sep-13 23:00N 64°10' W 051°43'0 0.0
2019-Sep-13 22:30N 64°10' W 051°43'0 0.0
2019-Sep-13 22:00N 64°10' W 051°43'0 0.0
2019-Sep-13 21:30N 64°10' W 051°43'0 0.0
2019-Sep-13 21:00N 64°10' W 051°43'0 0.0
2019-Sep-13 20:30N 64°10' W 051°43'0 0.0
2019-Sep-13 20:00N 64°10' W 051°43'0 0.0
2019-Sep-13 19:30N 64°10' W 051°43'0 0.0
2019-Sep-13 19:00N 64°10' W 051°43'0 0.0
2019-Sep-13 18:30N 64°10' W 051°43'0 0.0
2019-Sep-13 18:00N 64°10' W 051°43'0 0.0
2019-Sep-13 17:30N 64°10' W 051°43'0 0.0
2019-Sep-13 17:00N 64°10' W 051°43'0 0.0
2019-Sep-13 16:30N 64°10' W 051°43'0 0.0
2019-Sep-13 16:00N 64°10' W 051°43'0 0.0
2019-Sep-13 15:30N 64°10' W 051°43'0 0.0
2019-Sep-13 15:00N 64°10' W 051°43'0 0.0
2019-Sep-13 14:30N 64°10' W 051°43'0 0.0
2019-Sep-13 14:00N 64°10' W 051°43'0 0.0
2019-Sep-13 13:30N 64°10' W 051°43'0 0.0
2019-Sep-13 13:01N 64°10' W 051°43'0 0.0
2019-Sep-13 12:31N 64°10' W 051°43'0 0.0
2019-Sep-13 12:00N 64°10' W 051°43'0 0.0
2019-Sep-13 11:30N 64°10' W 051°43'0 0.0
2019-Sep-13 11:01N 64°10' W 051°43'0 0.0
2019-Sep-13 10:30N 64°10' W 051°43'0 0.0
2019-Sep-13 10:00N 64°10' W 051°43'0 0.0
2019-Sep-13 09:31N 64°10' W 051°43'3 5.2
2019-Sep-13 09:00N 64°08' W 051°41'5 9.7
2019-Sep-13 08:30N 64°03' W 051°38'5 9.4
2019-Sep-13 07:56N 63°58' W 051°38'410.0
2019-Sep-13 07:30N 63°54' W 051°34'5 9.4
2019-Sep-13 07:01N 63°49' W 051°35'5 9.5
2019-Sep-13 06:30N 63°45' W 051°36'  
2019-Sep-10 14:43N 63°29' W 051°34'1511.3
2019-Sep-10 13:26N 63°44' W 051°36'512.0
2019-Sep-10 13:00N 63°49' W 051°35'611.7
2019-Sep-10 12:30N 63°55' W 051°33'611.7
2019-Sep-10 12:00N 63°60' W 051°41'611.6
2019-Sep-10 11:30N 64°06' W 051°39'510.0
2019-Sep-10 11:00N 64°10' W 051°43'0 0.0
2019-Sep-10 10:30N 64°10' W 051°43'0 0.0
2019-Sep-10 10:00N 64°10' W 051°43'0 0.0
2019-Sep-10 09:30N 64°10' W 051°43'0 0.0
2019-Sep-10 09:00N 64°10' W 051°43'3 5.7
2019-Sep-10 08:31N 64°09' W 051°48'611.1
2019-Sep-10 08:00N 64°06' W 051°60'510.4
2019-Sep-10 07:30N 64°04' W 052°11'611.5
2019-Sep-10 07:00N 64°09' W 052°19'611.2
2019-Sep-10 06:30N 64°14' W 052°24'611.2
2019-Sep-10 06:00N 64°19' W 052°27'611.2
2019-Sep-10 05:31N 64°25' W 052°31'611.2
2019-Sep-10 05:00N 64°30' W 052°33'611.4
2019-Sep-10 04:30N 64°36' W 052°36'611.3
2019-Sep-10 04:00N 64°41' W 052°38'510.8
2019-Sep-10 03:30N 64°47' W 052°41'611.2
2019-Sep-10 03:00N 64°52' W 052°43'611.2
2019-Sep-10 02:30N 64°58' W 052°46'611.2
2019-Sep-10 02:01N 65°03' W 052°48'611.0
2019-Sep-10 01:31N 65°08' W 052°50'37 7.7
2019-Sep-09 20:41N 65°43' W 053°20'  

Dump ship's entire track history